Terminal Aerodrome Forecast
Issued by NWS

Home | Current Version | Previous Version | Text Only | Print | Product List | Glossary On
Versions: 1 2 3 4 5 6 7 8 9 10 11 12 13 14 15 16 17 18 19 20 21 22 23 24 25 26 27
000
FTUS45 KGJT 292337
TAFASE
TAF
KASE 292337Z 3000/3024 31007G18KT P6SM SCT120
     FM300100 30007KT P6SM SCT120
     FM300300 21005KT P6SM FEW250
     FM301600 26004KT P6SM FEW100
     FM301800 33008G18KT P6SM VCSH BKN100=

USA.gov is the U.S. government's official web portal to all federal, state and local government web resources and services.